PrentiSS Brown — WDE6848 — position and weather

sailwx.info

Track history (hours):
 
Tides and Currents Weather Stations Pressure Air Temp Water Temp Dewpoint Dewpoint Depression Visibility Wind Speed Wind Dir Waves Ship Positions

PrentiSS Brown

More information available from US FCC via Universal Licensing System and Coast Guard Vessel Documentation Center.

Last reported at 2014-Aug-29 17:33 UTC. Time now 2014-Aug-29 18:24 UTC.
Position N 45°19' W 085°18'.

; draft 5.6 m.

Type: Other ship. MMSI: 366922280.

Date/timePositionNaut miles runAvg speedWind from/ knotsBaromVisibWave heightAir tempDewpointWater temp
2014-Aug-29 17:33N 45°19' W 085°18'0 0.0
2014-Aug-29 16:33N 45°19' W 085°18'0 0.0
2014-Aug-29 15:33N 45°19' W 085°18'0 0.0
2014-Aug-29 14:33N 45°19' W 085°18'1 1.3
2014-Aug-29 13:33N 45°20' W 085°18'10 9.9
2014-Aug-29 12:33N 45°16' W 085°31'10 9.8
2014-Aug-29 11:33N 45°11' W 085°43'10 9.9
2014-Aug-29 10:33N 45°04' W 085°53'10 9.9
2014-Aug-29 09:33N 44°58' W 086°03'  
2014-Aug-26 03:18N 45°12' W 086°15'6 8.5
2014-Aug-26 02:33N 45°12' W 086°06'9 8.6
2014-Aug-26 01:33N 45°13' W 085°54'9 8.8
2014-Aug-26 00:33N 45°14' W 085°42'9 8.7
2014-Aug-25 23:33N 45°17' W 085°30'8 8.1
2014-Aug-25 22:33N 45°20' W 085°19'1 1.2
2014-Aug-25 21:33N 45°19' W 085°18'0 0.0
2014-Aug-25 20:33N 45°19' W 085°18'0 0.0
2014-Aug-25 19:33N 45°19' W 085°18'0 0.0
2014-Aug-25 18:33N 45°19' W 085°18'0 0.0
2014-Aug-25 17:33N 45°19' W 085°18'0 0.0
2014-Aug-25 16:33N 45°19' W 085°18'0 0.1
2014-Aug-25 15:33N 45°19' W 085°18'7 7.2
2014-Aug-25 14:33N 45°17' W 085°27'10 9.9
2014-Aug-25 13:33N 45°12' W 085°40'10 9.7
2014-Aug-25 12:33N 45°06' W 085°50'14 0.5
2014-Aug-24 05:10N 44°57' W 086°06'6 9.3
2014-Aug-24 04:33N 44°60' W 085°59'11 9.2
2014-Aug-24 03:24N 45°07' W 085°47'8 9.4
2014-Aug-24 02:33N 45°12' W 085°40'9 9.4
2014-Aug-24 01:33N 45°17' W 085°28'8 7.8
2014-Aug-24 00:33N 45°19' W 085°17'0 0.4
2014-Aug-23 23:33N 45°19' W 085°18'0 0.0
2014-Aug-23 22:33N 45°19' W 085°18'0 0.0
2014-Aug-23 21:33N 45°19' W 085°18'0 0.0
2014-Aug-23 20:33N 45°19' W 085°18'0 0.1
2014-Aug-23 19:33N 45°19' W 085°18'34 0.7
2014-Aug-21 18:32N 45°00' W 085°58'11 9.1
2014-Aug-21 17:19N 45°08' W 085°47'7 9.1
2014-Aug-21 16:33N 45°12' W 085°40'9 9.1
2014-Aug-21 15:33N 45°17' W 085°28'8 8.0
2014-Aug-21 14:33N 45°19' W 085°17'1 0.5
2014-Aug-21 13:33N 45°19' W 085°18'0 0.0
2014-Aug-21 12:33N 45°19' W 085°18'0 0.0
2014-Aug-21 11:33N 45°19' W 085°18'0 0.0
2014-Aug-21 10:33N 45°19' W 085°18'0 0.0
2014-Aug-21 09:33N 45°19' W 085°18'0 0.0
2014-Aug-21 08:33N 45°19' W 085°18'2 1.8
2014-Aug-21 07:33N 45°20' W 085°20'10 9.8
2014-Aug-21 06:33N 45°15' W 085°32'10 9.6
2014-Aug-21 05:33N 45°10' W 085°44'10 9.6
2014-Aug-21 04:33N 45°03' W 085°53'  
Track history (hours):
 
Tides and Currents Weather Stations Pressure Air Temp Water Temp Dewpoint Dewpoint Depression Visibility Wind Speed Wind Dir Waves Ship Positions

PrentiSS Brown

More information available from US FCC via Universal Licensing System and Coast Guard Vessel Documentation Center.

Last reported at 2014-Aug-29 17:33 UTC. Time now 2014-Aug-29 18:24 UTC.
Position N 45°19' W 085°18'.

; draft 5.6 m.

Type: Other ship. MMSI: 366922280.

Date/timePositionNaut miles runAvg speedWind from/ knotsBaromVisibWave heightAir tempDewpointWater temp
2014-Aug-29 17:33N 45°19' W 085°18'0 0.0
2014-Aug-29 16:33N 45°19' W 085°18'0 0.0
2014-Aug-29 15:33N 45°19' W 085°18'0 0.0
2014-Aug-29 14:33N 45°19' W 085°18'1 1.3
2014-Aug-29 13:33N 45°20' W 085°18'10 9.9
2014-Aug-29 12:33N 45°16' W 085°31'10 9.8
2014-Aug-29 11:33N 45°11' W 085°43'10 9.9
2014-Aug-29 10:33N 45°04' W 085°53'10 9.9
2014-Aug-29 09:33N 44°58' W 086°03'  
2014-Aug-26 03:18N 45°12' W 086°15'6 8.5
2014-Aug-26 02:33N 45°12' W 086°06'9 8.6
2014-Aug-26 01:33N 45°13' W 085°54'9 8.8
2014-Aug-26 00:33N 45°14' W 085°42'9 8.7
2014-Aug-25 23:33N 45°17' W 085°30'8 8.1
2014-Aug-25 22:33N 45°20' W 085°19'1 1.2
2014-Aug-25 21:33N 45°19' W 085°18'0 0.0
2014-Aug-25 20:33N 45°19' W 085°18'0 0.0
2014-Aug-25 19:33N 45°19' W 085°18'0 0.0
2014-Aug-25 18:33N 45°19' W 085°18'0 0.0
2014-Aug-25 17:33N 45°19' W 085°18'0 0.0
2014-Aug-25 16:33N 45°19' W 085°18'0 0.1
2014-Aug-25 15:33N 45°19' W 085°18'7 7.2
2014-Aug-25 14:33N 45°17' W 085°27'10 9.9
2014-Aug-25 13:33N 45°12' W 085°40'10 9.7
2014-Aug-25 12:33N 45°06' W 085°50'14 0.5
2014-Aug-24 05:10N 44°57' W 086°06'6 9.3
2014-Aug-24 04:33N 44°60' W 085°59'11 9.2
2014-Aug-24 03:24N 45°07' W 085°47'8 9.4
2014-Aug-24 02:33N 45°12' W 085°40'9 9.4
2014-Aug-24 01:33N 45°17' W 085°28'8 7.8
2014-Aug-24 00:33N 45°19' W 085°17'0 0.4
2014-Aug-23 23:33N 45°19' W 085°18'0 0.0
2014-Aug-23 22:33N 45°19' W 085°18'0 0.0
2014-Aug-23 21:33N 45°19' W 085°18'0 0.0
2014-Aug-23 20:33N 45°19' W 085°18'0 0.1
2014-Aug-23 19:33N 45°19' W 085°18'34 0.7
2014-Aug-21 18:32N 45°00' W 085°58'11 9.1
2014-Aug-21 17:19N 45°08' W 085°47'7 9.1
2014-Aug-21 16:33N 45°12' W 085°40'9 9.1
2014-Aug-21 15:33N 45°17' W 085°28'8 8.0
2014-Aug-21 14:33N 45°19' W 085°17'1 0.5
2014-Aug-21 13:33N 45°19' W 085°18'0 0.0
2014-Aug-21 12:33N 45°19' W 085°18'0 0.0
2014-Aug-21 11:33N 45°19' W 085°18'0 0.0
2014-Aug-21 10:33N 45°19' W 085°18'0 0.0
2014-Aug-21 09:33N 45°19' W 085°18'0 0.0
2014-Aug-21 08:33N 45°19' W 085°18'2 1.8
2014-Aug-21 07:33N 45°20' W 085°20'10 9.8
2014-Aug-21 06:33N 45°15' W 085°32'10 9.6
2014-Aug-21 05:33N 45°10' W 085°44'10 9.6
2014-Aug-21 04:33N 45°03' W 085°53'  

Dump ship's entire track history